createdAt,value
2018-03-20T05:36:12.835Z,69.10
2018-03-20T05:38:45.044Z,69.10
2018-03-20T05:41:16.915Z,69.90
2018-03-20T05:43:48.803Z,70.60
2018-03-20T05:46:20.671Z,71.30
2018-03-20T05:48:52.555Z,72.60
2018-03-20T05:51:24.427Z,73.80
2018-03-20T05:53:57.087Z,76.20
2018-03-20T05:56:30.575Z,78.80
2018-03-20T05:59:02.451Z,78.70
2018-03-20T06:01:34.335Z,81.30
2018-03-20T06:04:06.223Z,82.30
2018-03-20T06:06:38.111Z,83.40
2018-03-20T06:09:10.014Z,84.60
2018-03-20T06:11:42.900Z,86.40
2018-03-20T06:14:14.791Z,86.40
2018-03-20T06:16:46.667Z,87.60
2018-03-20T06:19:18.556Z,87.80
2018-03-20T06:21:51.420Z,88.60
2018-03-20T06:24:23.304Z,88.20
2018-03-20T06:26:55.938Z,88.60
2018-03-20T06:29:27.842Z,88.60
2018-03-20T06:32:00.743Z,89.00
2018-03-20T06:34:32.911Z,89.00
2018-03-20T06:37:04.791Z,88.80
2018-03-20T06:39:36.939Z,88.70
2018-03-20T06:42:08.828Z,89.30
2018-03-20T06:44:40.707Z,89.90
2018-03-20T06:47:12.590Z,90.10
2018-03-20T06:49:44.476Z,90.20
2018-03-20T06:52:17.112Z,90.60
2018-03-20T06:54:48.996Z,90.60
2018-03-20T06:57:21.655Z,91.10
2018-03-20T06:59:53.540Z,91.10
2018-03-20T07:02:26.181Z,90.60
2018-03-20T07:04:58.075Z,90.60
2018-03-20T07:07:30.711Z,90.90
2018-03-20T07:10:02.839Z,90.90
2018-03-20T07:12:34.722Z,91.00
2018-03-20T07:15:06.865Z,90.80
2018-03-20T07:17:38.748Z,91.00
2018-03-20T07:20:10.656Z,91.20
2018-03-20T07:22:42.533Z,91.00
2018-03-20T07:25:15.195Z,91.10
2018-03-20T07:27:47.068Z,91.00
2018-03-20T07:30:19.724Z,91.00
2018-03-20T07:32:51.591Z,91.00
2018-03-20T07:35:24.297Z,90.80
2018-03-20T07:37:56.497Z,90.80
2018-03-20T07:40:28.379Z,90.90
2018-03-20T07:43:00.247Z,90.70
2018-03-20T07:45:32.135Z,90.60
2018-03-20T07:48:04.774Z,90.60
2018-03-20T07:50:36.886Z,90.60
2018-03-20T07:53:08.792Z,90.50
2018-03-20T07:55:40.675Z,90.30
2018-03-20T07:58:12.550Z,90.20
2018-03-20T08:00:45.203Z,90.10
2018-03-20T08:03:17.084Z,90.10
2018-03-20T08:05:49.020Z,90.30
2018-03-20T08:08:20.839Z,90.30
2018-03-20T08:10:52.723Z,90.20
2018-03-20T08:13:24.603Z,90.30
2018-03-20T08:15:56.495Z,90.20
2018-03-20T08:18:29.137Z,90.10
2018-03-20T08:21:01.015Z,90.10
2018-03-20T08:23:32.887Z,90.30
2018-03-20T08:26:05.552Z,90.50
2018-03-20T08:28:37.440Z,90.50
2018-03-20T08:31:10.095Z,91.00
2018-03-20T08:33:41.967Z,91.00
2018-03-20T08:36:14.619Z,91.50
2018-03-20T08:38:46.495Z,91.40
2018-03-20T08:41:19.171Z,92.30
2018-03-20T08:43:51.064Z,92.30
2018-03-20T08:46:22.955Z,92.50
2018-03-20T08:48:54.832Z,92.80
2018-03-20T08:51:26.780Z,92.70
2018-03-20T08:53:59.420Z,92.50
2018-03-20T08:56:31.320Z,92.60
2018-03-20T08:59:03.605Z,92.40
2018-03-20T09:01:35.448Z,92.40
2018-03-20T09:04:07.311Z,92.40
2018-03-20T09:06:39.199Z,92.40
2018-03-20T09:09:11.077Z,92.20
2018-03-20T09:11:43.972Z,91.70
2018-03-20T09:14:15.840Z,91.60
2018-03-20T09:16:47.760Z,91.60
2018-03-20T09:19:19.627Z,91.60
2018-03-20T09:21:51.534Z,91.30
2018-03-20T09:24:23.404Z,91.00
2018-03-20T09:26:55.351Z,90.20
2018-03-20T09:29:27.215Z,90.30
2018-03-20T09:31:59.111Z,90.10
2018-03-20T09:34:30.989Z,90.50
2018-03-20T09:37:03.653Z,90.20
2018-03-20T09:39:35.526Z,90.10
2018-03-20T09:42:07.427Z,90.00
2018-03-20T09:44:39.334Z,89.60
2018-03-20T09:47:11.219Z,89.90
2018-03-20T09:49:43.855Z,90.30
2018-03-20T09:52:15.750Z,90.30
2018-03-20T09:54:48.387Z,89.90
2018-03-20T09:57:20.275Z,89.90
2018-03-20T09:59:52.148Z,88.30
2018-03-20T10:02:24.827Z,86.80
2018-03-20T10:04:57.458Z,87.00
2018-03-20T10:07:29.347Z,86.60
2018-03-20T10:10:01.224Z,85.80
2018-03-20T10:12:33.863Z,85.80
2018-03-20T10:15:05.763Z,85.80
2018-03-20T10:17:38.417Z,85.30
2018-03-20T10:20:10.306Z,85.30
2018-03-20T10:22:42.948Z,81.50
2018-03-20T10:25:14.827Z,81.50
2018-03-20T10:27:46.712Z,81.00
2018-03-20T10:30:19.351Z,79.70
2018-03-20T10:32:51.357Z,79.60
2018-03-20T10:35:23.277Z,80.00
2018-03-20T10:37:55.112Z,79.20
2018-03-20T10:40:27.243Z,78.40
2018-03-20T10:42:59.131Z,77.60
2018-03-20T10:45:31.049Z,76.50
2018-03-20T10:48:03.696Z,74.50
2018-03-20T10:50:35.566Z,74.50
2018-03-20T10:53:07.451Z,72.00
2018-03-20T10:55:40.163Z,72.00
2018-03-20T10:58:12.047Z,72.00
2018-03-20T11:00:43.929Z,71.40
2018-03-20T11:03:15.819Z,71.10
2018-03-20T11:05:48.466Z,67.10
2018-03-20T11:08:20.339Z,67.00
2018-03-20T11:10:53.244Z,67.00
2018-03-20T11:13:25.123Z,67.00
2018-03-20T11:15:56.990Z,65.80
2018-03-20T11:18:29.127Z,61.40
2018-03-20T11:21:01.016Z,60.40
2018-03-20T11:23:32.892Z,59.00
2018-03-20T11:26:04.764Z,59.60
2018-03-20T11:28:36.872Z,57.90
2018-03-20T11:31:08.739Z,57.80
2018-03-20T11:33:40.631Z,58.10
2018-03-20T11:36:12.499Z,58.40
2018-03-20T11:38:44.622Z,58.20
2018-03-20T11:41:16.750Z,58.00
2018-03-20T11:43:50.340Z,59.00
2018-03-20T11:46:22.164Z,58.90
2018-03-20T11:48:54.046Z,59.00
2018-03-20T11:51:25.956Z,57.70
2018-03-20T11:53:58.621Z,56.40
2018-03-20T11:56:30.816Z,56.40
2018-03-20T11:59:02.725Z,55.10
2018-03-20T12:01:34.842Z,53.40
2018-03-20T12:04:06.735Z,54.10
2018-03-20T12:06:38.661Z,53.30
2018-03-20T12:12:15.086Z,52.00
2018-03-20T12:14:46.963Z,52.00
2018-03-20T12:17:18.848Z,51.20
2018-03-20T12:19:51.521Z,50.60
2018-03-20T12:22:23.375Z,50.50
2018-03-20T12:24:55.267Z,50.60
2018-03-20T12:27:27.159Z,50.80
2018-03-20T12:29:59.039Z,50.50
2018-03-20T12:32:30.912Z,47.00
2018-03-20T12:35:02.798Z,46.80
2018-03-20T12:37:35.427Z,45.60
2018-03-20T12:40:07.445Z,45.60
2018-03-20T12:42:39.317Z,45.00
2018-03-20T12:45:11.200Z,45.60
2018-03-20T12:47:43.067Z,45.60
2018-03-20T12:50:15.717Z,47.20
2018-03-20T12:52:47.584Z,47.20
2018-03-20T12:55:19.467Z,46.30
2018-03-20T12:57:51.332Z,45.20
2018-03-20T13:00:23.212Z,44.60
2018-03-20T13:02:55.079Z,45.10
2018-03-20T13:05:26.984Z,43.60
2018-03-20T13:07:58.969Z,43.40
2018-03-20T13:10:30.815Z,41.50
2018-03-20T13:13:02.699Z,40.40
2018-03-20T13:15:34.604Z,40.30
2018-03-20T13:18:06.771Z,38.90
2018-03-20T13:20:38.647Z,37.50
2018-03-20T13:23:10.591Z,38.20
2018-03-20T13:25:42.445Z,38.50
2018-03-20T13:28:15.126Z,36.50
2018-03-20T13:30:47.195Z,36.50
2018-03-20T13:33:19.073Z,34.70
2018-03-20T13:35:50.944Z,36.80
2018-03-20T13:38:22.821Z,36.20
2018-03-20T13:40:54.703Z,32.20
2018-03-20T13:43:26.571Z,34.20
2018-03-20T13:45:58.455Z,34.60
2018-03-20T13:48:30.322Z,34.60
2018-03-20T13:51:02.212Z,34.30
2018-03-20T13:53:34.079Z,35.70
2018-03-20T13:56:05.996Z,34.00
2018-03-20T13:58:37.917Z,33.00
2018-03-20T14:01:09.752Z,32.60
2018-03-20T14:03:41.619Z,32.80
2018-03-20T14:06:13.502Z,32.20
2018-03-20T14:08:45.376Z,30.20
2018-03-20T14:11:18.280Z,30.50
2018-03-20T14:13:50.153Z,29.80
2018-03-20T14:16:22.089Z,30.30
2018-03-20T14:18:53.907Z,31.30
2018-03-20T14:21:26.555Z,32.70
2018-03-20T14:23:58.420Z,32.70
2018-03-20T14:26:30.301Z,31.20
2018-03-20T14:29:02.170Z,29.60
2018-03-20T14:31:34.047Z,29.60
2018-03-20T14:34:06.142Z,29.60
2018-03-20T14:36:38.075Z,30.70
2018-03-20T14:39:09.940Z,29.80
2018-03-20T14:41:42.584Z,31.00
2018-03-20T14:44:15.230Z,29.50
2018-03-20T14:46:47.328Z,29.50
2018-03-20T14:49:19.374Z,29.30
2018-03-20T14:51:51.309Z,29.60
2018-03-20T14:54:23.947Z,30.70
2018-03-20T14:56:55.824Z,30.70
2018-03-20T14:59:28.483Z,31.00
2018-03-20T15:02:00.359Z,30.70
2018-03-20T15:04:32.236Z,30.40
2018-03-20T15:07:05.127Z,29.70
2018-03-20T15:09:36.995Z,29.70
2018-03-20T15:12:08.878Z,30.00
2018-03-20T15:14:40.804Z,29.70
2018-03-20T15:17:13.462Z,29.00
2018-03-20T15:19:45.325Z,29.00
2018-03-20T15:22:17.991Z,29.60
2018-03-20T15:24:49.863Z,29.60
2018-03-20T15:27:22.522Z,28.50
2018-03-20T15:29:54.398Z,28.40
2018-03-20T15:32:26.592Z,29.00
2018-03-20T15:34:58.460Z,28.10
2018-03-20T15:37:30.339Z,28.90
2018-03-20T15:40:02.204Z,28.90
2018-03-20T15:42:34.109Z,29.30
2018-03-20T15:45:05.979Z,29.90
2018-03-20T15:47:38.623Z,30.20
2018-03-20T15:50:10.503Z,30.20
2018-03-20T15:52:43.166Z,29.70
2018-03-20T15:55:15.027Z,29.80
2018-03-20T15:57:46.913Z,29.40
2018-03-20T16:00:19.554Z,28.70
2018-03-20T16:02:51.440Z,28.60
2018-03-20T16:05:23.636Z,28.60
2018-03-20T16:07:55.520Z,28.80
2018-03-20T16:10:27.415Z,28.60
2018-03-20T16:12:59.295Z,27.00
2018-03-20T16:15:31.927Z,28.00
2018-03-20T16:18:03.817Z,28.00
2018-03-20T16:20:35.683Z,28.00
2018-03-20T16:23:07.575Z,28.90
2018-03-20T16:25:39.740Z,29.30
2018-03-20T16:28:11.624Z,28.40
2018-03-20T16:30:43.494Z,27.60
2018-03-20T16:33:15.367Z,26.90
2018-03-20T16:35:47.484Z,26.90
2018-03-20T16:38:19.380Z,26.60
2018-03-20T16:40:51.247Z,27.60
2018-03-20T16:43:23.132Z,28.30
2018-03-20T16:45:55.002Z,28.20
2018-03-20T16:48:27.651Z,29.10
2018-03-20T16:50:59.519Z,28.50
2018-03-20T16:53:32.329Z,28.70
2018-03-20T16:56:04.407Z,29.00
2018-03-20T16:58:36.353Z,29.80
2018-03-20T17:01:08.535Z,29.80
2018-03-20T17:03:40.643Z,30.10
2018-03-20T17:06:12.504Z,30.20
2018-03-20T17:08:44.388Z,30.30
2018-03-20T17:11:16.287Z,30.20
2018-03-20T17:13:48.175Z,30.40
2018-03-20T17:16:20.515Z,29.60
2018-03-20T17:18:52.403Z,28.70
2018-03-20T17:21:24.267Z,28.80
2018-03-20T17:23:56.399Z,28.90
2018-03-20T17:26:28.272Z,29.10
2018-03-20T17:29:00.165Z,28.80
2018-03-20T17:31:32.028Z,27.70
2018-03-20T17:34:04.248Z,27.70
2018-03-20T17:36:36.115Z,27.60
2018-03-20T17:39:07.995Z,27.70
2018-03-20T17:41:39.863Z,28.50
2018-03-20T17:44:11.992Z,27.90
2018-03-20T17:46:43.871Z,27.70
2018-03-20T17:49:15.755Z,28.40
2018-03-20T17:51:47.631Z,28.50
2018-03-20T17:54:19.511Z,28.70
2018-03-20T17:56:52.163Z,29.60
2018-03-20T17:59:24.047Z,29.50
2018-03-20T18:01:55.919Z,29.80
2018-03-20T18:04:28.563Z,29.90
2018-03-20T18:07:00.440Z,29.90
2018-03-20T18:09:32.327Z,30.40
2018-03-20T18:12:04.951Z,31.00
2018-03-20T18:14:37.073Z,31.00
2018-03-20T18:17:08.963Z,31.30
2018-03-20T18:19:40.829Z,31.90
2018-03-20T18:22:12.755Z,32.50
2018-03-20T18:24:44.921Z,32.80
2018-03-20T18:27:16.791Z,32.60
2018-03-20T18:29:48.680Z,33.20
2018-03-20T18:32:20.560Z,33.70
2018-03-20T18:34:52.499Z,34.10
2018-03-20T18:37:24.368Z,34.30
2018-03-20T18:39:56.352Z,34.70
2018-03-20T18:42:28.215Z,35.00
2018-03-20T18:45:00.115Z,35.40
2018-03-20T18:47:31.983Z,35.60
2018-03-20T18:50:03.871Z,35.70
2018-03-20T18:52:35.747Z,36.00
2018-03-20T18:55:07.627Z,36.10
2018-03-20T18:57:40.255Z,36.80
2018-03-20T19:00:12.159Z,36.70
2018-03-20T19:02:44.907Z,37.00
2018-03-20T19:05:16.867Z,36.90
2018-03-20T19:07:48.735Z,37.10
2018-03-20T19:10:20.684Z,37.10
2018-03-20T19:12:52.559Z,36.90
2018-03-20T19:15:24.516Z,36.90
2018-03-20T19:17:56.475Z,36.80
2018-03-20T19:20:28.742Z,37.10
2018-03-20T19:23:00.629Z,36.70
2018-03-20T19:25:32.538Z,36.80
2018-03-20T19:28:05.403Z,37.30
2018-03-20T19:30:37.314Z,37.30
2018-03-20T19:33:09.193Z,37.20
2018-03-20T19:35:43.232Z,37.50
2018-03-20T19:38:15.139Z,37.70
2018-03-20T19:40:47.102Z,38.00
2018-03-20T19:43:19.062Z,38.30
2018-03-20T19:45:51.057Z,38.60
2018-03-20T19:48:23.555Z,38.60
2018-03-20T19:50:55.846Z,39.10
2018-03-20T19:53:29.839Z,39.60
2018-03-20T19:56:01.916Z,40.10
2018-03-20T19:58:33.944Z,40.30
2018-03-20T20:01:05.937Z,41.20
2018-03-20T20:03:37.952Z,41.50
2018-03-20T20:06:09.976Z,41.90
2018-03-20T20:08:41.970Z,42.20
2018-03-20T20:11:14.081Z,42.20
2018-03-20T20:13:46.125Z,42.50
2018-03-20T20:16:19.179Z,43.00
2018-03-20T20:18:51.435Z,43.00
2018-03-20T20:21:24.589Z,43.40
2018-03-20T20:23:56.819Z,43.40
2018-03-20T20:26:28.757Z,43.90
2018-03-20T20:29:00.887Z,44.20
2018-03-20T20:31:32.766Z,44.90
2018-03-20T20:34:04.635Z,45.30
2018-03-20T20:36:36.519Z,46.10
2018-03-20T20:39:08.631Z,47.20
2018-03-20T20:41:40.510Z,48.10
2018-03-20T20:44:12.656Z,49.10
2018-03-20T20:46:44.568Z,50.00
2018-03-20T20:49:16.544Z,50.70
2018-03-20T20:51:48.569Z,51.60
2018-03-20T20:54:20.455Z,52.10
2018-03-20T20:56:52.339Z,52.70
2018-03-20T20:59:24.205Z,53.00
2018-03-20T21:01:56.858Z,53.80
2018-03-20T21:04:28.723Z,53.70
2018-03-20T21:07:00.608Z,54.00
2018-03-20T21:09:33.243Z,54.60
2018-03-20T21:12:05.367Z,54.50
2018-03-20T21:14:37.235Z,54.70
2018-03-20T21:17:09.115Z,54.80
2018-03-20T21:19:40.987Z,55.10
2018-03-20T21:22:12.871Z,55.20
2018-03-20T21:24:44.744Z,55.40
2018-03-20T21:27:16.728Z,55.80
2018-03-20T21:29:49.355Z,56.00
2018-03-20T21:32:21.251Z,55.90
2018-03-20T21:34:53.897Z,56.40
